createdAt,value
2022-09-07T00:59:23.863Z,17.31
2022-09-07T01:00:24.544Z,17.31
2022-09-07T01:01:24.661Z,17.33
2022-09-07T01:04:29.536Z,17.34
2022-09-07T01:05:16.036Z,17.33
2022-09-07T01:06:16.052Z,17.36
2022-09-07T01:11:27.965Z,17.44
2022-09-07T01:12:26.151Z,17.44
2022-09-07T01:13:26.144Z,17.41
2022-09-07T01:14:27.066Z,17.43
2022-09-07T01:15:26.071Z,17.43
2022-09-07T01:16:26.164Z,17.43
2022-09-07T01:17:26.115Z,17.43
2022-09-07T01:18:26.114Z,17.40
2022-09-07T01:19:26.062Z,17.37
2022-09-07T01:20:25.999Z,17.36
2022-09-07T01:21:25.981Z,17.31
2022-09-07T01:22:26.099Z,17.31
2022-09-07T01:23:26.052Z,17.36
2022-09-07T01:24:26.034Z,17.37
2022-09-07T01:25:26.007Z,17.37
2022-09-07T01:26:26.921Z,17.38
2022-09-07T01:27:25.949Z,17.40
2022-09-07T01:28:25.937Z,17.40
2022-09-07T01:29:25.969Z,17.40
2022-09-07T01:30:25.881Z,17.40
2022-09-07T01:31:25.983Z,17.36
2022-09-07T01:32:25.856Z,17.34
2022-09-07T01:33:25.861Z,17.31
2022-09-07T01:34:25.930Z,17.28
2022-09-07T01:35:25.870Z,17.30
2022-09-07T01:36:25.852Z,17.31
2022-09-07T01:37:25.796Z,17.34
2022-09-07T01:38:27.969Z,17.37
2022-09-07T01:39:25.897Z,17.38
2022-09-07T01:40:25.794Z,17.38
2022-09-07T01:41:25.799Z,17.43
2022-09-07T01:42:25.783Z,17.44
2022-09-07T01:43:25.713Z,17.44
2022-09-07T01:44:25.714Z,17.43
2022-09-07T01:45:25.757Z,17.41
2022-09-07T01:46:25.806Z,17.44
2022-09-07T01:47:25.731Z,17.46
2022-09-07T01:48:25.712Z,17.48
2022-09-07T01:49:27.840Z,17.49
2022-09-07T01:50:25.717Z,17.49
2022-09-07T01:51:25.686Z,17.51
2022-09-07T01:52:27.111Z,17.51
2022-09-07T01:53:25.672Z,17.49
2022-09-07T01:54:25.634Z,17.51
2022-09-07T01:55:25.610Z,17.51
2022-09-07T01:58:38.617Z,17.52
2022-09-07T01:59:40.576Z,17.51
2022-09-07T02:00:39.674Z,17.51
2022-09-07T02:01:39.649Z,17.49
2022-09-07T02:02:39.690Z,17.51
2022-09-07T02:03:44.248Z,17.51
2022-09-07T02:04:39.589Z,17.51
2022-09-07T02:05:42.191Z,17.49
2022-09-07T02:25:00.903Z,17.54
2022-09-07T02:26:02.615Z,17.52
2022-09-07T02:27:25.092Z,17.54
2022-09-07T02:28:01.694Z,17.54
2022-09-07T02:39:28.840Z,17.40
2022-09-07T02:40:29.775Z,17.38
2022-09-07T02:41:29.742Z,17.38
2022-09-07T02:42:29.700Z,17.38
2022-09-07T02:43:29.695Z,17.40
2022-09-07T02:44:29.733Z,17.41
2022-09-07T02:45:29.703Z,17.43
2022-09-07T02:46:29.703Z,17.44
2022-09-07T02:47:29.616Z,17.48
2022-09-07T02:48:29.750Z,17.49
2022-09-07T02:49:29.632Z,17.49
2022-09-07T02:50:29.634Z,17.51
2022-09-07T02:51:29.561Z,17.52
2022-09-07T02:52:29.610Z,17.51
2022-09-07T02:53:29.544Z,17.49
2022-09-07T02:54:29.568Z,17.48
2022-09-07T02:55:30.317Z,17.48
2022-09-07T02:56:29.578Z,17.49
2022-09-07T02:57:29.544Z,17.48
2022-09-07T02:58:29.597Z,17.49
2022-09-07T02:59:29.458Z,17.49
2022-09-07T03:00:29.527Z,17.49
2022-09-07T03:01:29.569Z,17.49
2022-09-07T03:02:29.542Z,17.52
2022-09-07T03:03:29.493Z,17.52
2022-09-07T03:04:29.458Z,17.54
2022-09-07T03:05:29.447Z,17.52
2022-09-07T03:06:29.423Z,17.55
2022-09-07T03:07:29.471Z,17.55
2022-09-07T03:08:29.554Z,17.56
2022-09-07T03:09:29.350Z,17.56
2022-09-07T03:10:29.478Z,17.58
2022-09-07T03:11:29.401Z,17.58
2022-09-07T03:12:29.385Z,17.62
2022-09-07T03:13:29.384Z,17.59
2022-09-07T03:14:29.356Z,17.59
2022-09-07T03:15:29.420Z,17.56
2022-09-07T03:16:29.317Z,17.55
2022-09-07T03:17:29.344Z,17.55
2022-09-07T03:18:29.364Z,17.55
2022-09-07T03:19:29.279Z,17.55
2022-09-07T03:20:29.288Z,17.58
2022-09-07T03:21:29.275Z,17.58
2022-09-07T03:22:29.277Z,17.58
2022-09-07T03:23:29.245Z,17.58
2022-09-07T03:24:29.205Z,17.59
2022-09-07T03:25:29.236Z,17.62
2022-09-07T03:26:29.251Z,17.62
2022-09-07T03:27:29.170Z,17.59
2022-09-07T03:28:29.225Z,17.59
2022-09-07T03:29:29.228Z,17.62
2022-09-07T03:30:29.218Z,17.62
2022-09-07T03:31:29.135Z,17.62
2022-09-07T03:32:29.189Z,17.62
2022-09-07T03:33:29.125Z,17.59
2022-09-07T03:34:29.096Z,17.62
2022-09-07T03:35:29.097Z,17.59
2022-09-07T03:36:29.074Z,17.59
2022-09-07T03:37:29.072Z,17.62
2022-09-07T03:38:29.124Z,17.62
2022-09-07T03:39:29.102Z,17.59
2022-09-07T03:40:29.070Z,17.59
2022-09-07T03:41:28.999Z,17.62
2022-09-07T03:42:29.001Z,17.56
2022-09-07T03:43:29.023Z,17.58
2022-09-07T03:44:29.009Z,17.56
2022-09-07T03:45:29.000Z,17.56
2022-09-07T03:46:29.007Z,17.55
2022-09-07T03:47:28.954Z,17.55
2022-09-07T03:48:28.947Z,17.54
2022-09-07T03:49:28.957Z,17.54
2022-09-07T03:50:28.919Z,17.55
2022-09-07T03:51:28.893Z,17.56
2022-09-07T03:52:28.882Z,17.56
2022-09-07T03:53:28.862Z,17.58
2022-09-07T03:54:28.885Z,17.56
2022-09-07T03:55:28.888Z,17.55
2022-09-07T03:56:29.468Z,17.55
2022-09-07T03:57:28.842Z,17.54
2022-09-07T03:58:28.824Z,17.55
2022-09-07T03:59:28.862Z,17.55
2022-09-07T04:00:28.811Z,17.54
2022-09-07T04:01:28.869Z,17.54
2022-09-07T04:02:28.917Z,17.54
2022-09-07T04:03:28.738Z,17.54
2022-09-07T04:04:28.725Z,17.54
2022-09-07T04:05:28.736Z,17.51
2022-09-07T04:06:28.733Z,17.52
2022-09-07T04:07:28.764Z,17.51
2022-09-07T04:08:28.714Z,17.49
2022-09-07T04:09:28.676Z,17.51
2022-09-07T04:10:28.665Z,17.49
2022-09-07T04:11:28.696Z,17.51
2022-09-07T04:12:28.654Z,17.51
2022-09-07T04:13:28.685Z,17.51
2022-09-07T04:14:28.635Z,17.49
2022-09-07T04:15:28.640Z,17.49
2022-09-07T04:16:28.669Z,17.51
2022-09-07T04:17:28.608Z,17.48
2022-09-07T04:18:28.565Z,17.46
2022-09-07T04:19:28.559Z,17.43
2022-09-07T04:20:28.565Z,17.38
2022-09-07T04:21:28.582Z,17.34
2022-09-07T04:22:28.534Z,17.26
2022-09-07T04:23:28.553Z,17.22
2022-09-07T04:24:28.524Z,17.18
2022-09-07T04:25:28.567Z,17.12
2022-09-07T04:26:28.511Z,17.06
2022-09-07T04:27:28.499Z,17.04
2022-09-07T04:28:28.571Z,17.03
2022-09-07T04:29:28.483Z,17.03
2022-09-07T04:30:28.570Z,17.04
2022-09-07T04:31:28.549Z,17.03
2022-09-07T04:32:28.447Z,17.03
2022-09-07T04:33:28.464Z,17.03
2022-09-07T04:34:28.407Z,17.06
2022-09-07T04:35:28.363Z,17.04
2022-09-07T04:36:28.376Z,17.07
2022-09-07T04:37:28.380Z,17.07
2022-09-07T04:38:28.441Z,17.11
2022-09-07T04:39:28.395Z,17.12
2022-09-07T04:40:28.323Z,17.15
2022-09-07T04:41:28.315Z,17.19
2022-09-07T04:42:28.343Z,17.21
2022-09-07T04:43:28.361Z,17.22
2022-09-07T04:44:28.329Z,17.22
2022-09-07T04:45:28.294Z,17.19
2022-09-07T04:46:28.337Z,17.15
2022-09-07T04:47:28.267Z,17.08
2022-09-07T04:48:28.350Z,17.04
2022-09-07T04:49:28.268Z,16.97
2022-09-07T04:50:28.247Z,16.97
2022-09-07T04:51:28.184Z,16.94
2022-09-07T04:52:28.224Z,16.89
2022-09-07T04:53:28.226Z,16.86
2022-09-07T04:54:28.190Z,16.83
2022-09-07T04:55:28.176Z,16.83
2022-09-07T04:56:28.195Z,16.83
2022-09-07T04:57:28.127Z,16.83
2022-09-07T04:58:28.287Z,16.83
2022-09-07T04:59:28.073Z,16.83
2022-09-07T05:00:28.074Z,16.85
2022-09-07T05:01:28.172Z,16.81
2022-09-07T05:02:28.123Z,16.79
2022-09-07T05:03:28.047Z,16.76
2022-09-07T05:04:28.063Z,16.78
2022-09-07T05:05:28.037Z,16.78
2022-09-07T05:06:28.001Z,16.81
2022-09-07T05:07:28.034Z,16.81
2022-09-07T05:08:28.122Z,16.81
2022-09-07T05:09:28.004Z,16.81
2022-09-07T05:10:27.980Z,16.81
2022-09-07T05:11:29.766Z,16.78
2022-09-07T05:12:27.943Z,16.73
2022-09-07T05:13:27.952Z,16.71
2022-09-07T05:14:27.946Z,16.68
2022-09-07T05:15:27.977Z,16.68
2022-09-07T05:16:28.057Z,16.68
2022-09-07T05:17:27.912Z,16.67
2022-09-07T05:18:27.944Z,16.64
2022-09-07T05:19:27.881Z,16.61
2022-09-07T05:20:27.954Z,16.61
2022-09-07T05:21:27.841Z,16.61
2022-09-07T05:22:27.843Z,16.61
2022-09-07T05:23:28.503Z,16.60
2022-09-07T05:24:27.831Z,16.60
2022-09-07T05:25:27.820Z,16.60
2022-09-07T05:26:27.853Z,16.60
2022-09-07T05:27:27.790Z,16.61
2022-09-07T05:28:27.773Z,16.61
2022-09-07T05:31:27.776Z,16.66
2022-09-07T05:32:27.740Z,16.66
2022-09-07T05:34:32.347Z,16.66
2022-09-07T05:35:27.736Z,16.63
2022-09-07T05:36:27.739Z,16.64
2022-09-07T05:37:27.676Z,16.63
2022-09-07T05:38:27.731Z,16.64
2022-09-07T05:39:27.674Z,16.64
2022-09-07T05:40:27.635Z,16.64
2022-09-07T05:41:27.615Z,16.66
2022-09-07T05:42:27.653Z,16.64
2022-09-07T05:43:27.590Z,16.63
2022-09-07T05:45:27.634Z,16.64
2022-09-07T05:46:27.578Z,16.63
2022-09-07T05:47:27.548Z,16.64
2022-09-07T05:48:27.593Z,16.68
2022-09-07T05:49:27.546Z,16.73
2022-09-07T05:50:27.588Z,16.76
2022-09-07T05:51:27.588Z,16.79
2022-09-07T05:52:28.166Z,16.83
2022-09-07T05:53:27.505Z,16.85
2022-09-07T05:54:27.484Z,16.88
2022-09-07T05:55:30.334Z,16.89
2022-09-07T05:56:27.455Z,16.88
2022-09-07T05:57:27.451Z,16.86
2022-09-07T05:58:27.507Z,16.79
2022-09-07T05:59:27.426Z,16.70
2022-09-07T06:00:27.457Z,16.63
2022-09-07T06:01:27.419Z,16.56
2022-09-07T06:02:27.562Z,16.53
2022-09-07T06:03:27.448Z,16.49
2022-09-07T06:04:27.406Z,16.49
2022-09-07T06:05:27.395Z,16.46
2022-09-07T06:06:27.338Z,16.46
2022-09-07T06:07:27.346Z,16.45
2022-09-07T06:08:27.477Z,16.43
2022-09-07T06:09:30.392Z,16.43
2022-09-07T06:11:26.386Z,16.45
2022-09-07T06:12:27.314Z,16.45
2022-09-07T06:13:27.349Z,16.48
2022-09-07T06:14:27.257Z,16.49
2022-09-07T06:15:27.248Z,16.52
2022-09-07T06:16:27.278Z,16.56
2022-09-07T06:17:27.282Z,16.58
2022-09-07T06:18:27.213Z,16.61
2022-09-07T06:19:27.164Z,16.63
2022-09-07T06:20:27.233Z,16.64
2022-09-07T06:21:27.199Z,16.64
2022-09-07T06:22:30.811Z,16.67
2022-09-07T06:23:27.190Z,16.67
2022-09-07T06:24:27.126Z,16.68
2022-09-07T06:25:27.148Z,16.71
2022-09-07T06:26:27.173Z,16.70
2022-09-07T06:27:27.144Z,16.73
2022-09-07T06:28:27.098Z,16.75
2022-09-07T06:29:27.076Z,16.81
2022-09-07T06:30:27.127Z,16.82
2022-09-07T06:31:27.253Z,16.83
2022-09-07T06:33:27.038Z,16.88
2022-09-07T06:34:26.980Z,16.91
2022-09-07T06:35:26.977Z,16.91
2022-09-07T06:36:26.993Z,16.93
2022-09-07T06:37:26.987Z,16.91
2022-09-07T06:38:31.655Z,16.91
2022-09-07T06:39:27.033Z,16.91
2022-09-07T06:40:26.976Z,16.93
2022-09-07T06:42:27.808Z,16.93
2022-09-07T06:43:26.901Z,16.91
2022-09-07T06:44:26.972Z,16.91
2022-09-07T06:45:26.986Z,16.94
2022-09-07T06:47:26.887Z,16.96
2022-09-07T06:48:26.892Z,17.00
2022-09-07T06:49:26.873Z,17.04
2022-09-07T06:50:26.863Z,17.06
2022-09-07T06:51:26.835Z,17.08
2022-09-07T06:52:26.905Z,17.07
2022-09-07T06:53:34.198Z,17.07
2022-09-07T06:55:26.794Z,17.08
2022-09-07T06:56:26.779Z,17.08
2022-09-07T06:57:26.789Z,17.11
2022-09-07T06:58:26.754Z,17.12
2022-09-07T06:59:26.754Z,17.15
2022-09-07T07:00:26.731Z,17.16
2022-09-07T07:01:26.823Z,17.16
2022-09-07T07:02:27.047Z,17.14
2022-09-07T07:03:26.732Z,17.16
2022-09-07T07:04:26.695Z,17.19
2022-09-07T07:05:26.700Z,17.19
2022-09-07T07:06:26.684Z,17.21
2022-09-07T07:07:26.644Z,17.21
2022-09-07T07:08:26.645Z,17.21
2022-09-07T07:09:26.627Z,17.23
2022-09-07T07:10:26.648Z,17.22
2022-09-07T07:11:26.614Z,17.23
2022-09-07T07:12:58.718Z,17.22
2022-09-07T07:13:59.409Z,17.19
2022-09-07T07:14:59.311Z,17.21
2022-09-07T07:15:59.378Z,17.21
2022-09-07T07:16:59.330Z,17.25
2022-09-07T07:18:13.432Z,17.25
2022-09-07T07:18:59.312Z,17.26
2022-09-07T07:19:59.324Z,17.28
2022-09-07T07:20:59.309Z,17.26
2022-09-07T07:22:14.488Z,17.28
2022-09-07T07:22:59.263Z,17.26
2022-09-07T07:23:59.264Z,17.28
2022-09-07T07:24:59.236Z,17.26
2022-09-07T07:26:00.757Z,17.25
2022-09-07T07:26:59.185Z,17.21
2022-09-07T10:48:41.768Z,17.21
2022-09-07T10:49:39.475Z,17.19
2022-09-07T10:52:23.772Z,17.11
2022-09-07T10:53:40.773Z,17.06
2022-09-07T10:56:17.292Z,17.07
2022-09-07T10:56:22.981Z,17.03
2022-09-07T10:57:23.030Z,17.00
2022-09-07T11:09:47.827Z,16.93
2022-09-07T11:10:47.067Z,16.91
2022-09-07T11:12:03.619Z,16.91
2022-09-07T11:12:47.065Z,16.93
2022-09-07T11:14:09.264Z,16.93
2022-09-07T11:14:47.022Z,16.93
2022-09-07T11:15:47.055Z,16.93
2022-09-07T11:16:51.007Z,16.93
2022-09-07T11:17:52.012Z,16.96
2022-09-07T11:18:46.988Z,16.93
2022-09-07T11:19:46.948Z,16.88
2022-09-07T11:20:46.917Z,16.88
2022-09-07T11:22:02.329Z,16.89
2022-09-07T11:22:46.950Z,16.94
2022-09-07T11:23:46.874Z,16.97
2022-09-07T11:24:47.188Z,16.98
2022-09-07T11:25:46.929Z,17.00
2022-09-07T11:26:46.972Z,17.00
2022-09-07T11:27:46.894Z,16.97
2022-09-07T11:28:47.153Z,16.98
2022-09-07T11:29:46.851Z,16.97
2022-09-07T11:30:46.890Z,16.96
2022-09-07T11:31:46.795Z,16.91
2022-09-07T11:32:46.853Z,16.88
2022-09-07T11:34:23.883Z,16.86
2022-09-07T11:34:47.337Z,16.83
2022-09-07T11:35:46.743Z,16.83
2022-09-07T11:36:46.743Z,16.85
2022-09-07T11:37:46.705Z,16.86
2022-09-07T11:38:46.727Z,16.85
2022-09-07T11:39:46.781Z,16.82
2022-09-07T11:40:46.715Z,16.83
2022-09-07T11:41:46.683Z,16.82
2022-09-07T11:42:46.727Z,16.78
2022-09-07T11:43:46.694Z,16.75
2022-09-07T11:44:46.702Z,16.73
2022-09-07T11:45:46.658Z,16.71
2022-09-07T11:46:46.701Z,16.71
2022-09-07T11:47:46.627Z,16.66
2022-09-07T11:48:46.593Z,16.63
2022-09-07T11:49:51.980Z,16.60
2022-09-07T11:50:46.583Z,16.60
2022-09-07T11:51:46.797Z,16.57
2022-09-07T11:52:46.582Z,16.56
2022-09-07T11:53:46.614Z,16.58
2022-09-07T11:54:46.539Z,16.60
2022-09-07T11:55:46.586Z,16.64
2022-09-07T11:56:46.534Z,16.60
2022-09-07T11:57:46.531Z,16.57
2022-09-07T11:58:46.467Z,16.53
2022-09-07T11:59:47.516Z,16.45
2022-09-07T12:00:46.470Z,16.41
2022-09-07T12:01:46.436Z,16.38
2022-09-07T12:02:59.388Z,16.34
2022-09-07T12:03:46.602Z,16.34
2022-09-07T12:04:46.603Z,16.34
2022-09-07T12:05:46.396Z,16.34
2022-09-07T12:06:46.760Z,16.34
2022-09-07T12:07:46.388Z,16.38
2022-09-07T12:08:46.347Z,16.42
2022-09-07T12:09:46.436Z,16.49
2022-09-07T12:10:46.364Z,16.52
2022-09-07T12:11:46.355Z,16.56
2022-09-07T12:12:46.315Z,16.60
2022-09-07T12:13:46.354Z,16.66
2022-09-07T12:14:46.300Z,16.68
2022-09-07T12:15:46.351Z,16.70
2022-09-07T12:16:46.282Z,16.73
2022-09-07T12:17:46.322Z,16.76
2022-09-07T12:18:46.299Z,16.78
2022-09-07T12:19:46.246Z,16.81
2022-09-07T12:20:46.244Z,16.82
2022-09-07T12:21:46.291Z,16.83
2022-09-07T12:22:46.181Z,16.82
2022-09-07T12:23:46.239Z,16.83
2022-09-07T12:24:46.246Z,16.83
2022-09-07T12:25:46.234Z,16.83
2022-09-07T12:26:46.131Z,16.85
2022-09-07T12:27:46.931Z,16.86
2022-09-07T12:28:46.187Z,16.85
2022-09-07T12:29:46.118Z,16.86
2022-09-07T12:30:46.184Z,16.89
2022-09-07T12:31:57.658Z,16.91
2022-09-07T12:32:54.501Z,16.89
2022-09-07T12:33:46.105Z,16.88
2022-09-07T12:34:46.097Z,16.91
2022-09-07T12:35:46.073Z,16.89
2022-09-07T12:36:46.035Z,16.91
2022-09-07T12:37:46.872Z,16.93
2022-09-07T12:38:46.076Z,16.93
2022-09-07T12:39:46.158Z,16.94
2022-09-07T12:40:46.036Z,16.96
2022-09-07T12:41:47.409Z,16.97
2022-09-07T12:42:46.012Z,16.97
2022-09-07T12:43:46.048Z,17.00
2022-09-07T12:44:46.007Z,17.00
2022-09-07T12:45:45.994Z,17.01
2022-09-07T12:46:46.803Z,16.96
2022-09-07T12:47:45.907Z,16.91
2022-09-07T12:48:45.951Z,16.86
2022-09-07T12:49:45.904Z,16.85
2022-09-07T12:50:45.939Z,16.79
2022-09-07T12:52:09.088Z,16.71
2022-09-07T12:52:45.895Z,16.61
2022-09-07T12:53:45.886Z,16.56
2022-09-07T12:54:45.903Z,16.49
2022-09-07T12:56:46.401Z,16.43
2022-09-07T12:57:45.782Z,16.38
2022-09-07T12:58:45.795Z,16.34
2022-09-07T12:59:46.132Z,16.33
2022-09-07T13:00:45.807Z,16.33
2022-09-07T13:01:45.868Z,16.30
2022-09-07T13:02:45.761Z,16.28
2022-09-07T13:03:53.063Z,16.28
2022-09-07T13:04:45.742Z,16.34
2022-09-07T13:05:46.339Z,16.35
2022-09-07T13:07:45.671Z,16.42
2022-09-07T13:08:45.670Z,16.46
2022-09-07T13:09:45.713Z,16.49
2022-09-07T13:10:45.706Z,16.53
2022-09-07T13:11:45.795Z,16.58
2022-09-07T13:12:53.359Z,16.61
2022-09-07T13:14:02.950Z,16.64
2022-09-07T13:14:45.622Z,16.63
2022-09-07T13:15:45.704Z,16.64
2022-09-07T13:17:45.617Z,16.66
2022-09-07T13:18:45.600Z,16.64
2022-09-07T13:19:45.914Z,16.66
2022-09-07T13:20:45.569Z,16.66
2022-09-07T13:21:45.580Z,16.66
2022-09-07T13:22:45.658Z,16.67
2022-09-07T13:23:45.831Z,16.66
2022-09-07T13:24:46.712Z,16.64
2022-09-07T13:25:45.497Z,16.58
2022-09-07T13:26:50.598Z,16.56
2022-09-07T13:27:45.528Z,16.56
2022-09-07T13:28:45.484Z,16.52
2022-09-07T13:29:45.482Z,16.52
2022-09-07T13:30:45.546Z,16.50
2022-09-07T13:31:45.502Z,16.56
2022-09-07T13:33:45.457Z,16.52
2022-09-07T13:34:45.418Z,16.43
2022-09-07T13:35:45.391Z,16.35
2022-09-07T13:36:45.356Z,16.27
2022-09-07T13:37:45.364Z,16.23
2022-09-07T13:38:45.380Z,16.20
2022-09-07T13:39:45.413Z,16.12
2022-09-07T13:40:45.345Z,16.12
2022-09-07T13:41:45.347Z,16.12
2022-09-07T13:42:45.318Z,16.17
2022-09-07T13:43:45.344Z,16.20
2022-09-07T13:44:45.321Z,16.17
2022-09-07T13:45:45.355Z,16.17
2022-09-07T13:46:45.257Z,16.21
2022-09-07T13:47:45.272Z,16.23
2022-09-07T13:48:45.299Z,16.23
2022-09-07T13:49:45.256Z,16.25
2022-09-07T13:50:45.225Z,16.28
2022-09-07T13:51:45.212Z,16.33
2022-09-07T13:52:45.203Z,16.38
2022-09-07T13:53:45.204Z,16.41
2022-09-07T13:54:45.144Z,16.42
2022-09-07T13:55:45.176Z,16.45
2022-09-07T13:56:45.129Z,16.46
2022-09-07T13:57:45.161Z,16.46
2022-09-07T13:58:45.113Z,16.48
2022-09-07T13:59:45.169Z,16.48
2022-09-07T14:00:45.127Z,16.49
2022-09-07T14:01:45.154Z,16.49
2022-09-07T14:02:45.141Z,16.45
2022-09-07T14:03:45.119Z,16.39
2022-09-07T14:04:45.109Z,16.41
2022-09-07T14:05:45.067Z,16.35
2022-09-07T14:06:45.075Z,16.38
2022-09-07T14:07:45.012Z,16.33
2022-09-07T14:08:45.084Z,16.33
2022-09-07T14:09:45.179Z,16.31
2022-09-07T14:10:45.023Z,16.28
2022-09-07T14:11:45.024Z,16.24
2022-09-07T14:12:45.004Z,16.17
2022-09-07T14:13:44.959Z,16.12
2022-09-07T14:14:44.986Z,16.09
2022-09-07T14:15:44.955Z,16.05
2022-09-07T14:16:45.051Z,16.01
2022-09-07T14:17:44.916Z,15.97
2022-09-07T14:18:44.893Z,16.01
2022-09-07T14:19:45.080Z,16.04
2022-09-07T14:20:45.397Z,16.05
2022-09-07T14:21:44.899Z,16.07
2022-09-07T14:22:47.435Z,16.11
2022-09-07T14:23:44.868Z,16.20
2022-09-07T14:24:44.872Z,16.21
2022-09-07T14:26:44.830Z,16.24
2022-09-07T14:27:44.848Z,16.28
2022-09-07T14:28:44.819Z,16.31
2022-09-07T14:29:44.783Z,16.33
2022-09-07T14:30:44.885Z,16.33
2022-09-07T14:31:45.628Z,16.33
2022-09-07T14:32:44.788Z,16.28
2022-09-07T14:33:46.702Z,16.23
2022-09-07T14:34:44.790Z,16.23
2022-09-07T14:35:44.719Z,16.23
2022-09-07T14:36:46.265Z,16.24
2022-09-07T14:37:46.047Z,16.27
2022-09-07T14:39:44.783Z,16.31
2022-09-07T14:40:44.708Z,16.34
2022-09-07T14:41:44.662Z,16.34
2022-09-07T14:42:44.650Z,16.34
2022-09-07T14:43:44.673Z,16.35
2022-09-07T14:44:44.660Z,16.39
2022-09-07T14:45:44.681Z,16.41
2022-09-07T14:46:44.620Z,16.41
2022-09-07T14:47:44.607Z,16.38
2022-09-07T14:48:45.331Z,16.35
2022-09-07T14:49:44.545Z,16.34
2022-09-07T14:50:44.578Z,16.25
2022-09-07T14:51:44.575Z,16.28
2022-09-07T14:53:34.268Z,16.28
2022-09-07T14:53:45.361Z,16.27
2022-09-07T14:54:44.513Z,16.27
2022-09-07T14:55:44.565Z,16.25
2022-09-07T14:56:44.505Z,16.25
2022-09-07T14:57:44.467Z,16.23
2022-09-07T14:58:44.485Z,16.24
2022-09-07T14:59:44.530Z,16.27
2022-09-07T15:00:44.955Z,16.30
2022-09-07T15:01:44.646Z,16.30
2022-09-07T15:02:44.457Z,16.30
2022-09-07T15:03:44.494Z,16.30
2022-09-07T15:04:44.480Z,16.30
2022-09-07T15:05:44.419Z,16.25
2022-09-07T15:07:44.383Z,16.27
2022-09-07T15:08:44.391Z,16.28
2022-09-07T15:09:44.684Z,16.28
2022-09-07T15:11:32.927Z,16.30
2022-09-07T15:11:44.600Z,16.31
2022-09-07T15:12:44.330Z,16.35
2022-09-07T15:13:45.209Z,16.33
2022-09-07T15:14:44.307Z,16.34
2022-09-07T15:15:44.286Z,16.38
2022-09-07T15:16:44.555Z,16.38
2022-09-07T15:17:44.799Z,16.38
2022-09-07T15:18:44.298Z,16.39
2022-09-07T15:19:44.238Z,16.38
2022-09-07T15:20:44.368Z,16.39
2022-09-07T15:21:44.411Z,16.39
2022-09-07T15:22:44.161Z,16.42
2022-09-07T15:23:44.176Z,16.45
2022-09-07T15:24:44.232Z,16.46
2022-09-07T15:25:48.215Z,16.49
2022-09-07T15:27:44.156Z,16.56
2022-09-07T15:29:43.101Z,16.61
2022-09-07T15:30:44.318Z,16.66
2022-09-07T15:31:52.251Z,16.70
2022-09-07T15:32:44.280Z,16.71
2022-09-07T15:33:44.080Z,16.76
2022-09-07T15:34:44.089Z,16.76
2022-09-07T15:35:44.069Z,16.79
2022-09-07T15:36:44.045Z,16.83
2022-09-07T15:39:00.077Z,16.89
2022-09-07T15:39:44.048Z,16.93
2022-09-07T15:41:10.595Z,16.93
2022-09-07T15:41:43.995Z,16.93
2022-09-07T15:42:59.989Z,16.97
2022-09-07T15:43:43.951Z,17.03
2022-09-07T15:44:44.041Z,17.07
2022-09-07T15:45:44.015Z,17.08
2022-09-07T15:47:43.194Z,17.15
2022-09-07T15:47:51.946Z,17.18
2022-09-07T15:48:43.916Z,17.22
2022-09-07T15:49:50.019Z,17.25
2022-09-07T15:50:43.864Z,17.30
2022-09-07T15:52:46.343Z,17.38
2022-09-07T15:54:43.900Z,17.46
2022-09-07T15:55:43.832Z,17.49
2022-09-07T15:57:47.691Z,17.52
2022-09-07T15:58:05.487Z,17.54
2022-09-07T15:58:43.782Z,17.55
2022-09-07T15:59:43.777Z,17.58
2022-09-07T16:00:43.786Z,17.56
2022-09-07T16:01:59.483Z,17.59
2022-09-07T16:03:44.514Z,17.63
2022-09-07T16:04:43.866Z,17.64
2022-09-07T16:05:43.700Z,17.66
2022-09-07T16:06:43.720Z,17.68
2022-09-07T16:08:43.625Z,17.74
2022-09-07T16:09:43.692Z,17.77
2022-09-07T16:10:44.290Z,17.79
2022-09-07T16:11:43.674Z,17.82
2022-09-07T16:13:46.866Z,17.90
2022-09-07T16:14:43.682Z,17.92
2022-09-07T16:15:45.770Z,17.95
2022-09-07T16:17:47.840Z,17.96
2022-09-07T16:18:46.700Z,17.96
2022-09-07T16:19:43.549Z,17.96
2022-09-07T16:20:43.565Z,17.96
2022-09-07T16:21:43.570Z,17.97
2022-09-07T16:23:43.500Z,18.02
2022-09-07T16:24:43.526Z,18.03
2022-09-07T16:25:43.572Z,18.03
2022-09-07T16:26:43.511Z,18.05
2022-09-07T16:27:43.540Z,18.07
2022-09-07T16:28:43.525Z,18.07
2022-09-07T16:29:43.440Z,18.07
2022-09-07T16:30:43.437Z,18.05
2022-09-07T16:32:44.903Z,18.03
2022-09-07T16:33:43.471Z,18.03
2022-09-07T16:34:43.399Z,18.05
2022-09-07T16:35:43.325Z,18.03
2022-09-07T16:36:44.204Z,18.05
2022-09-07T16:38:44.118Z,18.07
2022-09-07T16:39:43.380Z,18.10
2022-09-07T16:40:43.278Z,18.11
2022-09-07T16:41:43.309Z,18.11
2022-09-07T16:42:43.261Z,18.14
2022-09-07T16:43:43.289Z,18.14
2022-09-07T16:44:43.291Z,18.17
2022-09-07T16:46:43.297Z,18.18
2022-09-07T16:47:43.274Z,18.18
2022-09-07T16:48:44.135Z,18.18
2022-09-07T16:49:43.182Z,18.20
2022-09-07T16:50:43.194Z,18.21
2022-09-07T16:51:43.207Z,18.23
2022-09-07T16:52:43.147Z,18.26
2022-09-07T16:53:43.182Z,18.27
2022-09-07T16:54:43.199Z,18.30
2022-09-07T16:55:43.142Z,18.33
2022-09-07T16:56:43.111Z,18.33
2022-09-07T16:58:43.148Z,18.37
2022-09-07T16:59:43.139Z,18.39
2022-09-07T17:00:43.113Z,18.41
2022-09-07T17:01:43.136Z,18.44
2022-09-07T17:02:43.052Z,18.47
2022-09-07T17:03:43.982Z,18.50
2022-09-07T17:04:43.060Z,18.52
2022-09-07T17:05:43.026Z,18.55
2022-09-07T17:06:43.012Z,18.60
2022-09-07T17:07:42.999Z,18.62
2022-09-07T17:08:43.019Z,18.65
2022-09-07T17:09:42.995Z,18.66
2022-09-07T17:10:42.987Z,18.67
2022-09-07T17:11:43.025Z,18.65
2022-09-07T17:12:42.965Z,18.60
2022-09-07T17:13:42.938Z,18.62
2022-09-07T17:14:42.878Z,18.65
2022-09-07T17:15:43.097Z,18.63
2022-09-07T17:16:42.963Z,18.63
2022-09-07T17:17:42.905Z,18.63
2022-09-07T17:19:42.932Z,18.63
2022-09-07T17:20:42.915Z,18.63
2022-09-07T17:21:42.936Z,18.63
2022-09-07T17:22:44.678Z,18.60
2022-09-07T17:23:49.384Z,18.57
2022-09-07T17:24:42.857Z,18.54
2022-09-07T17:25:42.798Z,18.50
2022-09-07T17:26:42.947Z,18.39
2022-09-07T17:27:44.094Z,18.30
2022-09-07T17:28:44.061Z,18.21
2022-09-07T17:29:42.744Z,18.17
2022-09-07T17:30:42.729Z,18.12
2022-09-07T17:32:41.703Z,18.05
2022-09-07T17:33:42.743Z,18.03
2022-09-07T17:34:42.697Z,18.02
2022-09-07T17:35:42.693Z,18.03
2022-09-07T17:36:42.901Z,18.00
2022-09-07T17:37:42.685Z,18.00
2022-09-07T17:39:42.727Z,18.02
2022-09-07T17:40:42.623Z,18.03
2022-09-07T17:41:42.639Z,18.02
2022-09-07T17:43:45.649Z,18.05
2022-09-07T17:44:42.561Z,18.08
2022-09-07T17:45:42.616Z,18.10
2022-09-07T17:46:42.600Z,18.12
2022-09-07T17:47:42.595Z,18.14
2022-09-07T17:48:42.543Z,18.15
2022-09-07T17:49:42.503Z,18.15
2022-09-07T17:50:42.668Z,18.17
2022-09-07T17:51:42.560Z,18.17
2022-09-07T17:52:46.004Z,18.18
2022-09-07T17:53:45.153Z,18.18
2022-09-07T17:54:42.571Z,18.21
2022-09-07T17:55:42.446Z,18.21
2022-09-07T17:56:42.464Z,18.25
2022-09-07T17:57:42.496Z,18.25
2022-09-07T17:58:42.449Z,18.27
2022-09-07T18:00:42.471Z,18.30
2022-09-07T18:01:42.425Z,18.32
2022-09-07T18:02:42.375Z,18.32
2022-09-07T18:03:42.662Z,18.35
2022-09-07T18:04:42.460Z,18.33
2022-09-07T18:05:42.318Z,18.35
2022-09-07T18:06:42.371Z,18.37
2022-09-07T18:07:42.349Z,18.37
2022-09-07T18:08:42.354Z,18.39
2022-09-07T18:09:42.336Z,18.41
2022-09-07T18:11:46.802Z,18.41
2022-09-07T18:12:42.301Z,18.39
2022-09-07T18:13:42.882Z,18.41
2022-09-07T18:14:43.587Z,18.41
2022-09-07T18:15:42.235Z,18.41
2022-09-07T18:16:42.361Z,18.39
2022-09-07T18:17:42.213Z,18.39
2022-09-07T18:18:42.217Z,18.37
2022-09-07T18:19:42.286Z,18.37
2022-09-07T18:20:42.211Z,18.37
2022-09-07T18:21:42.436Z,18.39
2022-09-07T18:22:42.143Z,18.39
2022-09-07T18:23:42.183Z,18.39
2022-09-07T18:24:42.135Z,18.39
2022-09-07T18:25:42.133Z,18.37
2022-09-07T18:26:42.123Z,18.39
2022-09-07T18:27:42.553Z,18.39
2022-09-07T18:29:42.758Z,18.37
2022-09-07T18:30:42.079Z,18.41
2022-09-07T18:31:42.874Z,18.41
2022-09-07T18:32:42.046Z,18.39
2022-09-07T18:33:42.066Z,18.42
2022-09-07T18:34:44.794Z,18.44
2022-09-07T18:35:42.003Z,18.45
2022-09-07T18:36:43.936Z,18.45
2022-09-07T18:37:41.988Z,18.47
2022-09-07T18:38:42.387Z,18.45
2022-09-07T18:39:42.131Z,18.45
2022-09-07T18:40:41.953Z,18.45